createdAt,value
2019-03-04T00:00:46.044Z,2.00
2019-03-04T00:01:46.011Z,1.90
2019-03-04T00:02:45.998Z,1.50
2019-03-04T00:03:45.983Z,2.00
2019-03-04T00:04:45.999Z,1.90
2019-03-04T00:05:45.969Z,2.20
2019-03-04T00:06:45.986Z,1.90
2019-03-04T00:07:45.940Z,2.30
2019-03-04T00:08:45.930Z,1.70
2019-03-04T00:09:45.944Z,2.00
2019-03-04T00:10:45.907Z,1.60
2019-03-04T00:11:45.899Z,1.90
2019-03-04T00:12:45.898Z,1.60
2019-03-04T00:13:45.874Z,1.70
2019-03-04T00:14:45.887Z,1.80
2019-03-04T00:15:45.853Z,2.00
2019-03-04T00:16:45.843Z,2.00
2019-03-04T00:17:45.830Z,1.20
2019-03-04T00:18:45.837Z,1.70
2019-03-04T00:19:45.839Z,1.60
2019-03-04T00:20:45.803Z,1.70
2019-03-04T00:21:45.789Z,1.40
2019-03-04T00:22:45.776Z,1.70
2019-03-04T00:23:45.767Z,1.60
2019-03-04T00:24:45.782Z,1.60
2019-03-04T00:25:45.767Z,1.50
2019-03-04T00:26:45.732Z,1.70
2019-03-04T00:27:45.723Z,1.60
2019-03-04T00:28:45.711Z,1.90
2019-03-04T00:29:45.712Z,1.50
2019-03-04T00:30:45.740Z,1.80
2019-03-04T00:31:45.680Z,1.70
2019-03-04T00:32:45.667Z,1.30
2019-03-04T00:33:45.660Z,1.80
2019-03-04T00:34:45.644Z,1.30
2019-03-04T00:35:45.657Z,1.80
2019-03-04T00:36:45.635Z,1.50
2019-03-04T00:37:45.634Z,1.30
2019-03-04T00:38:45.601Z,1.50
2019-03-04T00:39:45.589Z,1.40
2019-03-04T00:40:45.605Z,1.10
2019-03-04T00:41:45.568Z,1.10
2019-03-04T00:42:45.593Z,1.10
2019-03-04T00:43:45.548Z,1.20
2019-03-04T00:44:45.535Z,1.40
2019-03-04T00:45:45.549Z,1.10
2019-03-04T00:46:45.513Z,0.90
2019-03-04T00:47:45.501Z,1.10
2019-03-04T00:48:45.509Z,1.30
2019-03-04T00:49:45.485Z,1.00
2019-03-04T00:50:45.496Z,1.00
2019-03-04T00:51:45.470Z,1.20
2019-03-04T00:52:45.449Z,0.80
2019-03-04T00:53:45.439Z,1.30
2019-03-04T00:54:45.453Z,1.10
2019-03-04T00:55:45.446Z,1.00
2019-03-04T00:56:45.408Z,1.10
2019-03-04T00:57:45.392Z,1.10
2019-03-04T00:58:45.385Z,1.20
2019-03-04T00:59:45.370Z,1.20
2019-03-04T01:00:45.397Z,1.00
2019-03-04T01:01:45.351Z,1.10
2019-03-04T01:02:45.341Z,1.00
2019-03-04T01:03:45.328Z,1.20
2019-03-04T01:04:45.316Z,1.00
2019-03-04T01:05:45.328Z,1.10
2019-03-04T01:06:45.331Z,0.90
2019-03-04T01:07:45.283Z,1.00
2019-03-04T01:08:45.272Z,1.00
2019-03-04T01:09:45.262Z,1.10
2019-03-04T01:10:45.281Z,0.90
2019-03-04T01:11:45.239Z,0.90
2019-03-04T01:12:45.248Z,0.70
2019-03-04T01:13:45.217Z,0.50
2019-03-04T01:14:45.222Z,0.90
2019-03-04T01:15:45.198Z,0.50
2019-03-04T01:16:45.206Z,0.50
2019-03-04T01:17:45.177Z,0.60
2019-03-04T01:18:45.162Z,0.50
2019-03-04T01:19:45.166Z,0.70
2019-03-04T01:20:45.139Z,0.50
2019-03-04T01:21:45.154Z,0.80
2019-03-04T01:22:45.116Z,0.60
2019-03-04T01:23:45.110Z,0.70
2019-03-04T01:24:45.098Z,0.60
2019-03-04T01:25:45.131Z,0.60
2019-03-04T01:26:45.100Z,0.60
2019-03-04T01:27:45.064Z,0.60
2019-03-04T01:28:45.052Z,0.60
2019-03-04T01:29:45.041Z,0.40
2019-03-04T01:30:45.031Z,0.40
2019-03-04T01:31:45.088Z,0.60
2019-03-04T01:32:45.008Z,0.30
2019-03-04T01:33:44.998Z,0.50
2019-03-04T01:34:44.985Z,0.40
2019-03-04T01:35:44.976Z,0.50
2019-03-04T01:36:44.988Z,0.40
2019-03-04T01:37:44.981Z,0.50
2019-03-04T01:38:44.943Z,0.30
2019-03-04T01:39:44.931Z,0.50
2019-03-04T01:40:44.923Z,0.30
2019-03-04T01:41:44.937Z,0.40
2019-03-04T01:42:44.900Z,0.40
2019-03-04T01:43:44.917Z,0.30
2019-03-04T01:44:44.888Z,0.40
2019-03-04T01:45:44.866Z,0.50
2019-03-04T01:46:44.887Z,0.40
2019-03-04T01:47:44.845Z,0.40
2019-03-04T01:48:44.835Z,0.40
2019-03-04T01:49:44.842Z,0.50
2019-03-04T01:50:44.809Z,0.50
2019-03-04T01:51:44.825Z,0.30
2019-03-04T01:52:44.787Z,0.40
2019-03-04T01:53:44.778Z,0.50
2019-03-04T01:54:44.765Z,0.30
2019-03-04T01:55:44.763Z,0.30
2019-03-04T01:56:44.780Z,0.40
2019-03-04T01:57:44.731Z,0.30
2019-03-04T01:58:44.728Z,0.30
2019-03-04T01:59:44.710Z,0.40
2019-03-04T02:00:44.699Z,0.40
2019-03-04T02:01:44.728Z,0.30
2019-03-04T02:02:44.695Z,0.40
2019-03-04T02:03:44.666Z,0.20
2019-03-04T02:04:44.658Z,0.30
2019-03-04T02:05:44.643Z,0.20
2019-03-04T02:06:44.638Z,0.30
2019-03-04T02:07:44.647Z,0.20
2019-03-04T02:08:44.643Z,0.20
2019-03-04T02:09:44.605Z,0.30
2019-03-04T02:10:44.596Z,0.30
2019-03-04T02:11:44.576Z,0.30
2019-03-04T02:12:44.592Z,0.30
2019-03-04T02:13:44.554Z,0.30
2019-03-04T02:14:44.561Z,0.40
2019-03-04T02:15:44.537Z,0.30
2019-03-04T02:16:44.527Z,0.30
2019-03-04T02:17:44.537Z,0.30
2019-03-04T02:18:44.499Z,0.30
2019-03-04T02:19:44.488Z,0.30
2019-03-04T02:20:44.500Z,0.30
2019-03-04T02:21:44.467Z,0.20
2019-03-04T02:22:44.478Z,0.20
2019-03-04T02:23:44.444Z,0.20
2019-03-04T02:24:44.435Z,0.20
2019-03-04T02:25:44.422Z,0.20
2019-03-04T02:26:44.429Z,0.20
2019-03-04T02:27:44.423Z,0.20
2019-03-04T02:28:44.390Z,0.20
2019-03-04T02:29:44.382Z,0.20
2019-03-04T02:30:44.366Z,0.20
2019-03-04T02:31:44.358Z,0.20
2019-03-04T02:32:44.397Z,0.20
2019-03-04T02:33:44.337Z,0.20
2019-03-04T02:34:44.326Z,0.30
2019-03-04T02:35:44.315Z,0.20
2019-03-04T02:36:44.302Z,0.20
2019-03-04T02:37:44.320Z,0.20
2019-03-04T02:38:44.287Z,0.20
2019-03-04T02:39:44.271Z,0.20
2019-03-04T02:40:44.256Z,0.20
2019-03-04T02:41:44.245Z,0.20
2019-03-04T02:42:44.235Z,0.20
2019-03-04T02:43:44.253Z,0.20
2019-03-04T02:44:44.224Z,0.20
2019-03-04T02:45:44.204Z,0.20
2019-03-04T02:46:44.193Z,0.20
2019-03-04T02:47:44.181Z,0.10
2019-03-04T02:48:44.206Z,0.10
2019-03-04T02:49:44.159Z,0.10
2019-03-04T02:50:44.174Z,0.20
2019-03-04T02:51:44.144Z,0.20
2019-03-04T02:52:44.129Z,0.10
2019-03-04T02:53:44.142Z,0.20
2019-03-04T02:54:44.109Z,0.20
2019-03-04T02:55:44.093Z,0.10
2019-03-04T02:56:44.100Z,0.20
2019-03-04T02:57:44.073Z,0.30
2019-03-04T02:58:44.082Z,0.20
2019-03-04T02:59:44.064Z,0.20
2019-03-04T03:00:44.042Z,0.20
2019-03-04T03:01:44.032Z,0.30
2019-03-04T03:02:44.058Z,0.20
2019-03-04T03:03:44.031Z,0.20
2019-03-04T03:04:44.013Z,0.20
2019-03-04T03:05:43.984Z,0.20
2019-03-04T03:06:43.982Z,0.20
2019-03-04T03:07:43.969Z,0.20
2019-03-04T03:08:44.017Z,0.30
2019-03-04T03:09:43.938Z,0.20
2019-03-04T03:10:43.941Z,0.20
2019-03-04T03:11:43.919Z,0.20
2019-03-04T03:12:43.909Z,0.20
2019-03-04T03:13:43.921Z,0.30
2019-03-04T03:14:43.902Z,0.30
2019-03-04T03:15:43.877Z,0.30
2019-03-04T03:16:43.862Z,0.30
2019-03-04T03:17:43.853Z,0.20
2019-03-04T03:18:43.876Z,0.40
2019-03-04T03:19:43.829Z,0.30
2019-03-04T03:20:43.829Z,0.40
2019-03-04T03:21:43.808Z,0.30
2019-03-04T03:22:43.798Z,0.50
2019-03-04T03:23:43.808Z,0.40
2019-03-04T03:24:43.807Z,0.30
2019-03-04T03:25:43.764Z,0.40
2019-03-04T03:26:43.770Z,0.30
2019-03-04T03:27:43.744Z,0.30
2019-03-04T03:28:43.731Z,0.40
2019-03-04T03:29:43.740Z,0.40
2019-03-04T03:30:43.708Z,0.40
2019-03-04T03:31:43.709Z,0.50
2019-03-04T03:32:43.736Z,0.40
2019-03-04T03:33:43.678Z,0.50
2019-03-04T03:34:43.687Z,0.40
2019-03-04T03:35:43.650Z,0.40
2019-03-04T03:36:43.646Z,0.30
2019-03-04T03:37:43.637Z,0.40
2019-03-04T03:38:43.624Z,0.40
2019-03-04T03:39:43.642Z,0.30
2019-03-04T03:40:43.599Z,0.50
2019-03-04T03:41:43.587Z,0.30
2019-03-04T03:42:43.578Z,0.40
2019-03-04T03:43:43.579Z,0.50
2019-03-04T03:44:43.587Z,0.40
2019-03-04T03:45:43.542Z,0.40
2019-03-04T03:46:43.539Z,0.40
2019-03-04T03:47:43.521Z,0.30
2019-03-04T03:48:43.515Z,0.30
2019-03-04T03:49:43.536Z,0.30
2019-03-04T03:50:43.523Z,0.50
2019-03-04T03:51:43.478Z,0.50
2019-03-04T03:52:43.488Z,0.40
2019-03-04T03:53:43.457Z,0.40
2019-03-04T03:54:43.447Z,0.30
2019-03-04T03:55:43.461Z,0.40
2019-03-04T03:56:43.481Z,0.40
2019-03-04T03:57:43.411Z,0.40
2019-03-04T03:58:43.400Z,0.30
2019-03-04T03:59:43.400Z,0.40
2019-03-04T04:00:43.402Z,0.30
2019-03-04T04:01:43.371Z,0.50
2019-03-04T04:02:43.375Z,0.50
2019-03-04T04:03:43.364Z,0.40
2019-03-04T04:04:43.336Z,0.30
2019-03-04T04:05:43.352Z,0.30
2019-03-04T04:06:43.323Z,0.50
2019-03-04T04:07:43.300Z,0.30
2019-03-04T04:08:43.290Z,0.50
2019-03-04T04:09:43.308Z,0.40
2019-03-04T04:10:43.300Z,0.40
2019-03-04T04:11:43.259Z,0.40
2019-03-04T04:12:43.254Z,0.30
2019-03-04T04:13:43.236Z,0.30
2019-03-04T04:14:43.224Z,0.40
2019-03-04T04:15:43.270Z,0.30
2019-03-04T04:16:43.203Z,0.30
2019-03-04T04:17:43.218Z,0.30
2019-03-04T04:18:43.185Z,0.30
2019-03-04T04:19:43.168Z,0.40
2019-03-04T04:20:43.191Z,0.30
2019-03-04T04:21:43.148Z,0.40
2019-03-04T04:22:43.144Z,0.40
2019-03-04T04:23:43.124Z,0.40
2019-03-04T04:24:43.115Z,0.30
2019-03-04T04:25:43.150Z,0.30
2019-03-04T04:26:43.093Z,0.30
2019-03-04T04:27:43.094Z,0.30
2019-03-04T04:28:43.083Z,0.30
2019-03-04T04:29:43.059Z,0.30
2019-03-04T04:30:43.052Z,0.40
2019-03-04T04:31:43.060Z,0.30
2019-03-04T04:32:43.027Z,0.30
2019-03-04T04:33:43.028Z,0.40
2019-03-04T04:34:43.013Z,0.40
2019-03-04T04:35:42.992Z,0.30
2019-03-04T04:36:43.004Z,0.40
2019-03-04T04:37:42.980Z,0.40
2019-03-04T04:38:42.974Z,0.40
2019-03-04T04:39:42.954Z,0.30
2019-03-04T04:40:42.960Z,0.30
2019-03-04T04:41:42.963Z,0.40
2019-03-04T04:42:42.918Z,0.40
2019-03-04T04:43:42.905Z,0.40
2019-03-04T04:44:42.894Z,0.30
2019-03-04T04:45:42.884Z,0.40
2019-03-04T04:46:42.898Z,0.40
2019-03-04T04:47:42.908Z,0.30
2019-03-04T04:48:42.851Z,0.40
2019-03-04T04:49:42.840Z,0.30
2019-03-04T04:50:42.833Z,0.40
2019-03-04T04:51:42.841Z,0.30
2019-03-04T04:52:42.808Z,0.40
2019-03-04T04:53:42.834Z,0.30
2019-03-04T04:54:42.785Z,0.40
2019-03-04T04:55:42.777Z,0.40
2019-03-04T04:56:42.787Z,0.30
2019-03-04T04:57:42.754Z,0.30
2019-03-04T04:58:42.744Z,0.40
2019-03-04T04:59:42.756Z,0.30
2019-03-04T05:00:42.719Z,0.40
2019-03-04T05:01:42.745Z,0.30
2019-03-04T05:02:42.701Z,0.40
2019-03-04T05:03:42.687Z,0.40
2019-03-04T05:04:42.676Z,0.30
2019-03-04T05:05:42.681Z,0.40
2019-03-04T05:06:42.658Z,0.30
2019-03-04T05:07:42.668Z,0.40
2019-03-04T05:08:42.631Z,0.40
2019-03-04T05:09:42.621Z,0.40
2019-03-04T05:10:42.614Z,0.60
2019-03-04T05:11:42.621Z,0.40
2019-03-04T05:12:42.611Z,0.40
2019-03-04T05:13:42.578Z,0.60
2019-03-04T05:14:42.567Z,0.50
2019-03-04T05:15:42.557Z,0.50
2019-03-04T05:16:42.544Z,0.50
2019-03-04T05:17:42.575Z,0.50
2019-03-04T05:18:42.524Z,0.50
2019-03-04T05:19:42.512Z,0.40
2019-03-04T05:20:42.501Z,0.50
2019-03-04T05:21:42.490Z,0.30
2019-03-04T05:22:42.503Z,0.50
2019-03-04T05:23:42.502Z,0.40
2019-03-04T05:24:42.458Z,0.40
2019-03-04T05:25:42.448Z,0.30
2019-03-04T05:26:42.437Z,0.40
2019-03-04T05:27:42.454Z,0.40
2019-03-04T05:28:42.412Z,0.40
2019-03-04T05:29:42.415Z,0.50
2019-03-04T05:30:42.417Z,0.50
2019-03-04T05:31:42.379Z,0.50
2019-03-04T05:32:42.397Z,0.50
2019-03-04T05:33:42.363Z,0.40
2019-03-04T05:34:42.346Z,0.60
2019-03-04T05:35:42.336Z,0.50
2019-03-04T05:36:42.345Z,0.50
2019-03-04T05:37:42.353Z,0.60
2019-03-04T05:38:42.307Z,0.50
2019-03-04T05:39:42.298Z,0.50
2019-03-04T05:40:42.285Z,0.30
2019-03-04T05:41:42.272Z,0.40
2019-03-04T05:42:42.281Z,0.40
2019-03-04T05:43:42.287Z,0.50
2019-03-04T05:44:42.241Z,0.50
2019-03-04T05:45:42.228Z,0.40
2019-03-04T05:46:42.221Z,0.50
2019-03-04T05:47:42.208Z,0.40
2019-03-04T05:48:42.233Z,0.50
2019-03-04T05:49:42.188Z,0.40
2019-03-04T05:50:42.173Z,0.40
2019-03-04T05:51:42.162Z,0.50
2019-03-04T05:52:42.153Z,0.40
2019-03-04T05:53:42.168Z,0.50
2019-03-04T05:54:42.168Z,0.40
2019-03-04T05:55:42.119Z,0.40
2019-03-04T05:56:42.111Z,0.40
2019-03-04T05:57:42.100Z,0.40
2019-03-04T05:58:42.115Z,0.50
2019-03-04T05:59:42.081Z,0.70
2019-03-04T06:00:42.097Z,0.50
2019-03-04T06:01:42.058Z,0.30
2019-03-04T06:02:42.048Z,0.60
2019-03-04T06:03:42.056Z,0.50
2019-03-04T06:04:42.026Z,0.40
2019-03-04T06:05:42.011Z,0.50
2019-03-04T06:06:42.022Z,0.50
2019-03-04T06:07:41.988Z,0.40
2019-03-04T06:08:42.003Z,0.40
2019-03-04T06:09:41.970Z,0.60
2019-03-04T06:10:41.955Z,0.50
2019-03-04T06:11:41.948Z,0.40
2019-03-04T06:12:41.946Z,0.60
2019-03-04T06:13:41.969Z,0.40
2019-03-04T06:14:41.913Z,0.40
2019-03-04T06:15:41.901Z,0.50
2019-03-04T06:16:47.330Z,0.40
2019-03-04T06:17:42.878Z,0.60
2019-03-04T06:18:41.899Z,0.40
2019-03-04T06:19:43.956Z,0.60
2019-03-04T06:20:41.847Z,0.50
2019-03-04T06:21:41.835Z,0.50
2019-03-04T06:22:41.825Z,0.50
2019-03-04T06:23:41.851Z,0.40
2019-03-04T06:24:41.809Z,0.50
2019-03-04T06:25:41.800Z,0.50
2019-03-04T06:26:41.801Z,0.50
2019-03-04T06:27:41.775Z,0.50
2019-03-04T06:28:41.760Z,0.40
2019-03-04T06:29:41.771Z,0.40
2019-03-04T06:30:41.748Z,0.40
2019-03-04T06:31:41.753Z,0.50
2019-03-04T06:32:41.715Z,0.50
2019-03-04T06:33:41.705Z,0.60
2019-03-04T06:34:41.722Z,0.40
2019-03-04T06:35:41.684Z,0.50
2019-03-04T06:36:41.672Z,0.40
2019-03-04T06:37:41.671Z,0.60
2019-03-04T06:38:41.655Z,0.40
2019-03-04T06:39:41.663Z,0.30
2019-03-04T06:40:41.627Z,0.50
2019-03-04T06:41:41.619Z,0.40
2019-03-04T06:42:41.608Z,0.30
2019-03-04T06:43:41.602Z,0.40
2019-03-04T06:44:41.608Z,0.40
2019-03-04T06:45:41.572Z,0.30
2019-03-04T06:46:41.562Z,0.20
2019-03-04T06:47:41.550Z,0.30
2019-03-04T06:48:41.540Z,0.30
2019-03-04T06:49:41.577Z,0.40
2019-03-04T06:50:41.519Z,0.30
2019-03-04T06:51:41.508Z,0.40
2019-03-04T06:52:41.495Z,0.50
2019-03-04T06:53:41.484Z,0.30
2019-03-04T06:54:41.498Z,0.30
2019-03-04T06:55:41.488Z,0.30
2019-03-04T06:56:41.464Z,0.40
2019-03-04T06:57:41.441Z,0.30
2019-03-04T06:58:41.438Z,0.40
2019-03-04T06:59:41.445Z,0.40
2019-03-04T07:00:41.408Z,0.30
2019-03-04T07:01:41.423Z,0.30
2019-03-04T07:02:41.389Z,0.30
2019-03-04T07:03:41.391Z,0.30
2019-03-04T07:04:41.393Z,0.30
2019-03-04T07:05:41.353Z,0.40
2019-03-04T07:06:41.347Z,0.40
2019-03-04T07:07:41.351Z,0.40
2019-03-04T07:08:41.342Z,0.30
2019-03-04T07:09:41.350Z,0.80
2019-03-04T07:10:41.303Z,0.20
2019-03-04T07:11:41.289Z,0.20
2019-03-04T07:12:41.276Z,0.20
2019-03-04T07:13:41.289Z,0.20
2019-03-04T07:14:41.273Z,0.20
2019-03-04T07:15:41.276Z,0.20
2019-03-04T07:16:41.249Z,0.20
2019-03-04T07:17:41.222Z,0.10
2019-03-04T07:18:41.211Z,0.00
2019-03-04T07:19:41.204Z,0.10
2019-03-04T07:20:41.252Z,0.10
2019-03-04T07:21:41.206Z,0.10
2019-03-04T07:22:41.181Z,0.10
2019-03-04T07:23:41.156Z,0.10
2019-03-04T07:24:41.144Z,0.10
2019-03-04T07:25:41.157Z,0.10
2019-03-04T07:26:41.129Z,0.10
2019-03-04T07:27:41.112Z,0.10
2019-03-04T07:28:41.103Z,0.10
2019-03-04T07:29:41.090Z,0.10
2019-03-04T07:30:41.104Z,0.10
2019-03-04T07:31:41.068Z,0.10
2019-03-04T07:32:41.073Z,0.20
2019-03-04T07:33:41.048Z,0.10
2019-03-04T07:34:41.035Z,0.10
2019-03-04T07:35:41.049Z,0.00
2019-03-04T07:36:41.059Z,0.10
2019-03-04T07:37:41.003Z,0.10
2019-03-04T07:38:41.027Z,0.10
2019-03-04T07:39:40.982Z,0.10
2019-03-04T07:40:40.996Z,0.10
2019-03-04T07:41:40.962Z,0.10
2019-03-04T07:42:40.950Z,0.10
2019-03-04T07:43:40.939Z,0.10
2019-03-04T07:44:40.934Z,0.10
2019-03-04T07:45:40.943Z,0.10
2019-03-04T07:46:40.912Z,0.10
2019-03-04T07:47:40.895Z,0.10
2019-03-04T07:48:40.884Z,0.10
2019-03-04T07:49:40.872Z,0.10
2019-03-04T07:50:40.897Z,0.10
2019-03-04T07:51:40.851Z,0.10
2019-03-04T07:52:40.845Z,0.20
2019-03-04T07:53:46.313Z,0.10
2019-03-04T07:54:41.818Z,0.10
2019-03-04T07:55:40.833Z,0.10
2019-03-04T07:56:40.805Z,0.10
2019-03-04T07:57:40.788Z,0.00
2019-03-04T07:58:40.776Z,0.10
2019-03-04T07:59:40.765Z,0.00
2019-03-04T08:00:40.786Z,0.10
2019-03-04T08:01:40.740Z,0.00
2019-03-04T08:02:40.735Z,0.00
2019-03-04T08:03:40.728Z,0.00
2019-03-04T08:04:40.709Z,0.00
2019-03-04T08:05:40.697Z,0.10
2019-03-04T08:06:40.710Z,0.00
2019-03-04T08:07:40.678Z,0.00
2019-03-04T08:08:40.666Z,0.00
2019-03-04T08:09:40.681Z,0.00
2019-03-04T08:10:40.642Z,0.00
2019-03-04T08:11:40.655Z,0.10
2019-03-04T08:12:40.620Z,0.00
2019-03-04T08:13:40.609Z,0.00
2019-03-04T08:14:40.598Z,0.00
2019-03-04T08:15:40.617Z,0.10
2019-03-04T08:16:40.605Z,0.10
2019-03-04T08:17:40.566Z,0.00
2019-03-04T08:18:40.559Z,0.10
2019-03-04T08:19:40.543Z,0.10
2019-03-04T08:20:40.531Z,0.10
2019-03-04T08:21:40.574Z,0.00
2019-03-04T08:22:40.514Z,0.10
2019-03-04T08:23:40.499Z,0.10
2019-03-04T08:24:40.491Z,0.10
2019-03-04T08:25:40.479Z,0.10
2019-03-04T08:26:40.489Z,0.00
2019-03-04T08:27:40.511Z,0.10
2019-03-04T08:28:40.450Z,0.00
2019-03-04T08:29:40.438Z,0.10
2019-03-04T08:30:40.421Z,0.10
2019-03-04T08:31:40.436Z,0.10
2019-03-04T08:32:40.400Z,0.10
2019-03-04T08:33:40.388Z,0.10
2019-03-04T08:34:40.396Z,0.10
2019-03-04T08:35:40.367Z,0.10
2019-03-04T08:36:40.380Z,0.10
2019-03-04T08:37:40.345Z,0.10
2019-03-04T08:38:40.370Z,0.10
2019-03-04T08:39:40.326Z,0.10
2019-03-04T08:40:40.316Z,0.10
2019-03-04T08:41:40.344Z,0.10
2019-03-04T08:42:40.294Z,0.10
2019-03-04T08:43:40.280Z,0.10
2019-03-04T08:44:40.267Z,0.10
2019-03-04T08:45:40.258Z,0.10
2019-03-04T08:46:40.271Z,0.10
2019-03-04T08:47:40.256Z,0.20
2019-03-04T08:48:40.224Z,0.10
2019-03-04T08:49:40.217Z,0.10
2019-03-04T08:50:40.205Z,0.10
2019-03-04T08:51:40.243Z,0.10
2019-03-04T08:52:40.182Z,0.10
2019-03-04T08:53:40.182Z,0.10
2019-03-04T08:54:40.185Z,0.20
2019-03-04T08:55:40.150Z,0.10
2019-03-04T08:56:40.142Z,0.20
2019-03-04T08:57:40.150Z,0.10
2019-03-04T08:58:40.121Z,0.10
2019-03-04T08:59:40.106Z,0.10
2019-03-04T09:00:40.105Z,0.10
2019-03-04T09:01:40.096Z,0.10
2019-03-04T09:02:40.095Z,0.10
2019-03-04T09:03:40.060Z,0.10
2019-03-04T09:04:40.051Z,0.10
2019-03-04T09:05:40.043Z,0.10
2019-03-04T09:06:40.029Z,0.10
2019-03-04T09:07:40.052Z,0.10
2019-03-04T09:08:40.016Z,0.10
2019-03-04T09:09:39.995Z,0.10
2019-03-04T09:10:39.985Z,0.10
2019-03-04T09:11:39.980Z,0.10
2019-03-04T09:12:40.031Z,0.10
2019-03-04T09:13:39.965Z,0.10
2019-03-04T09:14:39.946Z,0.10
2019-03-04T09:15:39.942Z,0.10
2019-03-04T09:16:39.920Z,0.10
2019-03-04T09:17:39.931Z,0.10
2019-03-04T09:18:39.906Z,0.10
2019-03-04T09:19:39.885Z,0.10
2019-03-04T09:20:39.875Z,0.10
2019-03-04T09:21:39.879Z,0.20
2019-03-04T09:22:39.887Z,0.10
2019-03-04T09:23:39.840Z,0.10
2019-03-04T09:24:39.831Z,0.10
2019-03-04T09:25:39.821Z,0.00
2019-03-04T09:26:39.809Z,0.20
2019-03-04T09:27:39.824Z,0.10
2019-03-04T09:28:39.788Z,0.20
2019-03-04T09:29:39.786Z,0.10
2019-03-04T09:30:39.766Z,0.10
2019-03-04T09:31:39.786Z,0.10
2019-03-04T09:32:39.765Z,0.10
2019-03-04T09:33:39.737Z,0.10
2019-03-04T09:34:39.720Z,0.20
2019-03-04T09:35:39.709Z,0.10
2019-03-04T09:36:39.698Z,0.10
2019-03-04T09:37:39.715Z,0.10
2019-03-04T09:38:39.686Z,0.10
2019-03-04T09:39:39.664Z,0.20
2019-03-04T09:40:39.655Z,0.10
2019-03-04T09:41:39.645Z,0.20
2019-03-04T09:42:39.660Z,0.10
2019-03-04T09:43:39.629Z,0.40
2019-03-04T09:44:39.631Z,0.20
2019-03-04T09:45:39.604Z,0.30
2019-03-04T09:46:39.589Z,0.30
2019-03-04T09:47:39.600Z,0.30
2019-03-04T09:48:39.565Z,0.30
2019-03-04T09:49:39.554Z,0.20
2019-03-04T09:50:39.555Z,0.20
2019-03-04T09:51:39.553Z,0.30
2019-03-04T09:52:39.561Z,0.30
2019-03-04T09:53:39.938Z,0.40
2019-03-04T09:54:39.498Z,0.10
2019-03-04T09:55:39.488Z,0.20
2019-03-04T09:56:39.477Z,0.20
2019-03-04T09:57:39.476Z,0.20
2019-03-04T09:58:39.480Z,0.50
2019-03-04T09:59:39.447Z,0.20
2019-03-04T10:00:39.435Z,0.40
2019-03-04T10:01:39.423Z,0.30
2019-03-04T10:02:39.411Z,0.40
2019-03-04T10:03:39.444Z,0.30
2019-03-04T10:04:39.390Z,0.60
2019-03-04T10:05:39.377Z,0.40
2019-03-04T10:06:39.366Z,0.30
2019-03-04T10:07:39.358Z,0.40
2019-03-04T10:08:39.366Z,0.40
2019-03-04T10:09:39.347Z,0.30
2019-03-04T10:10:39.321Z,0.30
2019-03-04T10:11:39.311Z,0.40
2019-03-04T10:12:39.300Z,0.40
2019-03-04T10:13:39.314Z,0.40
2019-03-04T10:14:39.278Z,0.50
2019-03-04T10:15:39.289Z,0.40
2019-03-04T10:16:39.256Z,0.50
2019-03-04T10:17:39.247Z,0.40
2019-03-04T10:18:39.261Z,0.20
2019-03-04T10:19:39.221Z,0.40
2019-03-04T10:20:39.212Z,0.60
2019-03-04T10:21:39.227Z,0.60
2019-03-04T10:22:39.189Z,0.40
2019-03-04T10:23:39.220Z,0.40
2019-03-04T10:24:39.174Z,0.50
2019-03-04T10:25:39.157Z,0.60
2019-03-04T10:26:39.146Z,0.60
2019-03-04T10:27:39.150Z,0.30
2019-03-04T10:28:39.158Z,0.50
2019-03-04T10:29:39.113Z,0.50
2019-03-04T10:30:39.100Z,0.40
2019-03-04T10:31:39.095Z,0.30
2019-03-04T10:32:39.078Z,0.40
2019-03-04T10:33:39.089Z,0.40
2019-03-04T10:34:39.082Z,0.50
2019-03-04T10:35:39.057Z,0.40
2019-03-04T10:36:39.035Z,0.30
2019-03-04T10:37:39.053Z,0.40
2019-03-04T10:38:39.033Z,0.40
2019-03-04T10:39:39.026Z,0.80
2019-03-04T10:40:38.996Z,0.50
2019-03-04T10:41:38.981Z,0.50
2019-03-04T10:42:38.970Z,0.50
2019-03-04T10:43:38.957Z,0.50
2019-03-04T10:44:38.981Z,0.50
2019-03-04T10:45:38.938Z,0.60
2019-03-04T10:46:38.926Z,0.40
2019-03-04T10:47:38.915Z,0.50
2019-03-04T10:48:38.903Z,0.50
2019-03-04T10:49:38.918Z,0.60
2019-03-04T10:50:38.896Z,0.60
2019-03-04T10:51:38.888Z,0.50
2019-03-04T10:52:38.862Z,0.20
2019-03-04T10:53:38.846Z,0.50
2019-03-04T10:54:38.876Z,0.60
2019-03-04T10:55:42.305Z,0.50
2019-03-04T10:56:40.692Z,0.60
2019-03-04T10:57:38.818Z,0.70
2019-03-04T10:58:38.799Z,0.50
2019-03-04T10:59:38.806Z,0.50
2019-03-04T11:00:38.771Z,0.80
2019-03-04T11:01:38.762Z,0.50
2019-03-04T11:02:38.751Z,0.40
2019-03-04T11:03:38.749Z,0.60
2019-03-04T11:04:38.754Z,0.50
2019-03-04T11:05:38.719Z,0.70
2019-03-04T11:06:38.705Z,0.30
2019-03-04T11:07:38.696Z,0.60
2019-03-04T11:08:38.684Z,0.50
2019-03-04T11:09:38.715Z,0.40
2019-03-04T11:10:38.669Z,0.50
2019-03-04T11:11:38.652Z,0.40
2019-03-04T11:12:38.639Z,0.40
2019-03-04T11:13:38.629Z,0.40
2019-03-04T11:14:38.618Z,0.40
2019-03-04T11:15:38.628Z,0.30
2019-03-04T11:16:38.616Z,0.50
2019-03-04T11:17:38.586Z,0.30
2019-03-04T11:18:38.578Z,0.30
2019-03-04T11:19:38.571Z,0.30
2019-03-04T11:20:38.578Z,0.50
2019-03-04T11:21:38.541Z,0.40
2019-03-04T11:22:38.536Z,0.20
2019-03-04T11:23:38.520Z,0.20
2019-03-04T11:24:38.509Z,0.30
2019-03-04T11:25:38.526Z,0.30
2019-03-04T11:26:38.486Z,0.40
2019-03-04T11:27:38.475Z,0.20
2019-03-04T11:28:38.471Z,0.20
2019-03-04T11:29:38.463Z,0.30
2019-03-04T11:30:38.470Z,0.30
2019-03-04T11:31:38.438Z,0.20
2019-03-04T11:32:38.419Z,0.20
2019-03-04T11:33:38.410Z,0.30
2019-03-04T11:34:38.401Z,0.20
2019-03-04T11:35:38.429Z,0.20
2019-03-04T11:36:38.380Z,0.40
2019-03-04T11:37:38.371Z,0.30
2019-03-04T11:38:38.354Z,0.20
2019-03-04T11:39:38.347Z,0.20
2019-03-04T11:40:38.357Z,0.20
2019-03-04T11:41:38.355Z,0.20
2019-03-04T11:42:38.313Z,0.20
2019-03-04T11:43:38.325Z,0.30
2019-03-04T11:44:38.289Z,0.20
2019-03-04T11:45:38.303Z,0.30
2019-03-04T11:46:38.289Z,0.30
2019-03-04T11:47:38.255Z,0.40
2019-03-04T11:48:38.256Z,0.20
2019-03-04T11:49:38.231Z,0.30
2019-03-04T11:50:38.245Z,0.10
2019-03-04T11:51:38.210Z,0.20
2019-03-04T11:52:38.199Z,0.20
2019-03-04T11:53:38.196Z,0.40
2019-03-04T11:54:38.195Z,0.20
2019-03-04T11:55:38.190Z,0.20
2019-03-04T11:56:38.157Z,0.20
2019-03-04T11:57:38.143Z,0.10
2019-03-04T11:58:38.134Z,0.10
2019-03-04T11:59:38.121Z,0.10
2019-03-04T12:00:38.158Z,0.20
2019-03-04T12:01:38.109Z,0.20
2019-03-04T12:02:39.195Z,0.10
2019-03-04T12:03:38.077Z,0.10
2019-03-04T12:04:38.071Z,0.20
2019-03-04T12:05:38.058Z,0.20
2019-03-04T12:06:38.080Z,0.20
2019-03-04T12:07:38.035Z,0.10
2019-03-04T12:08:38.022Z,0.10
2019-03-04T12:09:38.014Z,0.10
2019-03-04T12:10:38.003Z,0.20
2019-03-04T12:11:38.556Z,0.20
2019-03-04T12:12:37.987Z,0.10
2019-03-04T12:13:37.972Z,0.20
2019-03-04T12:14:37.955Z,0.20
2019-03-04T12:15:37.949Z,0.20
2019-03-04T12:16:37.965Z,0.30
2019-03-04T12:17:37.926Z,0.20
2019-03-04T12:18:37.931Z,0.20
2019-03-04T12:19:37.921Z,0.10
2019-03-04T12:20:37.891Z,0.10
2019-03-04T12:21:37.902Z,0.10
2019-03-04T12:22:37.870Z,0.10
2019-03-04T12:23:37.861Z,0.20
2019-03-04T12:24:37.847Z,0.20
2019-03-04T12:25:37.845Z,0.00
2019-03-04T12:26:37.859Z,0.10
2019-03-04T12:27:37.811Z,0.10
2019-03-04T12:28:37.802Z,0.10
2019-03-04T12:29:37.790Z,0.10
2019-03-04T12:30:37.783Z,0.00
2019-03-04T12:31:37.814Z,0.10
2019-03-04T12:32:37.759Z,0.00
2019-03-04T12:33:37.746Z,0.00
2019-03-04T12:34:37.739Z,0.10
2019-03-04T12:35:37.725Z,0.10
2019-03-04T12:36:37.737Z,0.10
2019-03-04T12:37:37.716Z,0.10
2019-03-04T12:38:37.701Z,0.10
2019-03-04T12:39:37.683Z,0.10
2019-03-04T12:40:37.672Z,0.10
2019-03-04T12:41:37.686Z,0.20
2019-03-04T12:42:37.647Z,0.30
2019-03-04T12:43:37.645Z,0.40
2019-03-04T12:44:37.627Z,0.80
2019-03-04T12:45:37.615Z,0.50
2019-03-04T12:46:37.626Z,0.40
2019-03-04T12:47:37.594Z,0.60
2019-03-04T12:48:37.582Z,0.60
2019-03-04T12:49:37.585Z,0.40
2019-03-04T12:50:37.563Z,0.40
2019-03-04T12:51:37.733Z,0.80
2019-03-04T12:52:37.537Z,0.60
2019-03-04T12:53:37.718Z,0.50
2019-03-04T12:54:37.519Z,0.90
2019-03-04T12:55:37.517Z,1.20
2019-03-04T12:56:37.495Z,1.40
2019-03-04T12:57:37.512Z,1.40
2019-03-04T12:58:37.472Z,1.00
2019-03-04T12:59:37.460Z,1.10
2019-03-04T13:00:37.449Z,1.40
2019-03-04T13:01:37.466Z,1.90
2019-03-04T13:02:37.452Z,1.40
2019-03-04T13:03:37.416Z,1.90
2019-03-04T13:04:37.410Z,2.10
2019-03-04T13:05:37.395Z,3.50
2019-03-04T13:06:37.389Z,3.50
2019-03-04T13:07:37.406Z,3.70
2019-03-04T13:08:37.375Z,4.60
2019-03-04T13:09:37.354Z,4.90
2019-03-04T13:10:37.339Z,6.20
2019-03-04T13:11:37.328Z,3.70
2019-03-04T13:12:37.342Z,4.60
2019-03-04T13:13:37.317Z,4.80
2019-03-04T13:14:37.295Z,5.30
2019-03-04T13:15:37.295Z,4.80
2019-03-04T13:16:37.274Z,4.90
2019-03-04T13:17:37.302Z,5.50
2019-03-04T13:18:37.251Z,5.30